Time;durP1;ratioP1;P1;durP2;ratioP2;P2;SDS_P1;SDS_P2;PMS_P1;PMS_P2;Temp;Humidity;BMP_temperature;BMP_pressure;BME280_temperature;BME280_humidity;BME280_pressure;Samples;Min_cycle;Max_cycle;Signal;HPM_P1;HPM_P2
2021/05/17 00:09:53;;;;;;;2.30;1.13;;;8.70;99.90;;;;;;20831631;28;20047;-79
2021/05/17 00:19:55;;;;;;;;;;;8.60;99.90;;;;;;20844891;28;20065;-81
2021/05/17 00:29:56;;;;;;;3.85;1.50;;;8.60;99.90;;;;;;20827128;28;19920;-82
2021/05/17 00:39:58;;;;;;;6.60;1.73;;;8.50;99.90;;;;;;20845584;28;20049;-78
2021/05/17 00:50:00;;;;;;;13.67;1.70;;;8.50;99.90;;;;;;20840897;28;20041;-80
2021/05/17 01:00:05;;;;;;;3.65;1.13;;;8.50;99.90;;;;;;20829766;28;20292;-83
2021/05/17 01:10:16;;;;;;;1.92;1.00;;;8.50;99.90;;;;;;20845788;28;20035;-82
2021/05/17 01:20:21;;;;;;;4.38;1.30;;;8.50;99.90;;;;;;20842160;28;20096;-82
2021/05/17 01:30:24;;;;;;;1.83;1.30;;;8.50;99.90;;;;;;20844221;28;20048;-79
2021/05/17 01:40:27;;;;;;;;;;;8.40;99.90;;;;;;20846043;28;20060;-83
2021/05/17 01:50:29;;;;;;;;;;;8.20;99.90;;;;;;20840450;28;19913;-83
2021/05/17 02:00:30;;;;;;;8.87;1.80;;;8.10;99.90;;;;;;20844412;28;19913;-83
2021/05/17 02:10:32;;;;;;;10.40;1.60;;;8.10;99.90;;;;;;20860666;28;20098;-81
2021/05/17 02:20:38;;;;;;;6.43;1.60;;;8.10;99.90;;;;;;20859641;28;20034;-80
2021/05/17 02:30:41;;;;;;;2.58;1.50;;;8.00;99.90;;;;;;20839737;28;20033;-81
2021/05/17 02:40:45;;;;;;;6.05;1.38;;;8.10;99.90;;;;;;20855776;28;20083;-79
2021/05/17 02:50:47;;;;;;;5.05;1.88;;;8.10;99.90;;;;;;20854671;28;20061;-80
2021/05/17 03:01:00;;;;;;;6.35;1.42;;;8.20;99.90;;;;;;20858771;28;20045;-80
2021/05/17 03:11:01;;;;;;;9.88;1.75;;;8.20;99.90;;;;;;20859152;28;20510;-79
2021/05/17 03:21:03;;;;;;;4.22;1.83;;;8.20;99.90;;;;;;20838485;28;20536;-82
2021/05/17 03:31:03;;;;;;;3.47;1.50;;;8.20;99.90;;;;;;20854034;28;20121;-82
2021/05/17 03:41:06;;;;;;;5.60;1.80;;;8.20;99.90;;;;;;20852649;28;20029;-81
2021/05/17 03:51:11;;;;;;;7.25;1.55;;;8.20;99.90;;;;;;20851921;28;20037;-84
2021/05/17 04:01:11;;;;;;;5.18;2.45;;;8.20;99.90;;;;;;20879308;22;20048;-74
2021/05/17 04:21:32;;;;;;;6.60;1.30;;;8.20;99.90;;;;;;20909506;28;20033;-75
2021/05/17 04:31:33;;;;;;;7.30;0.90;;;8.20;99.90;;;;;;20909353;28;20052;-75
2021/05/17 04:41:34;;;;;;;6.23;0.67;;;8.20;99.90;;;;;;20907600;28;20025;-75
2021/05/17 04:51:35;;;;;;;3.43;0.70;;;8.20;99.90;;;;;;20907710;28;20491;-75
2021/05/17 05:01:36;;;;;;;8.90;4.37;;;8.10;99.90;;;;;;20908425;28;20514;-75
2021/05/17 05:11:37;;;;;;;5.07;1.47;;;8.10;99.90;;;;;;20908022;28;20032;-75
2021/05/17 05:21:37;;;;;;;4.90;0.93;;;8.20;99.90;;;;;;20907721;28;20117;-75
2021/05/17 05:31:50;;;;;;;5.03;1.73;;;8.20;99.90;;;;;;20907183;28;20032;-75
2021/05/17 05:41:51;;;;;;;;;;;8.20;99.90;;;;;;20907147;28;20112;-75
2021/05/17 05:51:51;;;;;;;2.83;1.45;;;8.30;99.90;;;;;;20906804;28;20397;-75
2021/05/17 06:01:52;;;;;;;8.70;3.63;;;8.40;99.90;;;;;;20906437;28;20491;-75
2021/05/17 06:11:55;;;;;;;10.70;3.45;;;8.50;99.90;;;;;;20905746;28;20056;-75
2021/05/17 06:21:56;;;;;;;5.38;2.60;;;8.60;99.90;;;;;;20905343;28;20538;-75
2021/05/17 06:31:58;;;;;;;5.30;0.90;;;8.80;99.90;;;;;;20908009;28;20459;-75
2021/05/17 06:41:59;;;;;;;6.22;1.95;;;8.80;99.90;;;;;;20919257;28;20025;-75
2021/05/17 06:52:00;;;;;;;2.43;1.07;;;8.90;99.90;;;;;;20918901;28;20083;-75
2021/05/17 07:02:02;;;;;;;4.33;0.77;;;9.00;99.90;;;;;;20917870;28;20197;-75
2021/05/17 07:12:16;;;;;;;6.32;0.90;;;9.00;99.90;;;;;;20917271;28;20044;-75
2021/05/17 07:32:36;;;;;;;2.85;0.40;;;9.30;99.90;;;;;;20916507;28;20427;-75
2021/05/17 07:42:37;;;;;;;5.20;0.70;;;9.50;99.90;;;;;;20913128;28;20044;-76
2021/05/17 07:52:38;;;;;;;0.87;0.43;;;9.50;99.90;;;;;;20913972;28;20391;-76
2021/05/17 08:02:39;;;;;;;2.43;0.50;;;9.50;99.90;;;;;;20913121;28;20032;-76
2021/05/17 08:12:40;;;;;;;1.67;0.70;;;9.50;99.90;;;;;;20912698;28;20081;-75
2021/05/17 08:22:41;;;;;;;4.27;0.57;;;9.60;99.90;;;;;;20911704;28;20116;-76
2021/05/17 08:32:42;;;;;;;3.40;0.67;;;10.30;99.90;;;;;;20911284;28;20033;-76
2021/05/17 08:42:43;;;;;;;1.60;0.80;;;10.80;99.90;;;;;;20910181;28;20073;-76
2021/05/17 08:52:44;;;;;;;3.03;1.17;;;11.40;99.90;;;;;;20908168;28;20033;-76
2021/05/17 09:02:45;;;;;;;1.80;0.60;;;11.60;99.90;;;;;;20909045;28;20025;-76
2021/05/17 09:13:06;;;;;;;4.27;0.50;;;11.40;99.90;;;;;;20908507;28;20025;-76
2021/05/17 09:23:13;;;;;;;1.27;0.40;;;11.50;99.90;;;;;;20909087;28;20037;-76
2021/05/17 09:33:18;;;;;;;2.05;0.77;;;11.90;99.90;;;;;;20908761;28;20033;-75
2021/05/17 09:43:19;;;;;;;5.70;0.63;;;11.00;99.90;;;;;;20905606;28;20507;-75
2021/05/17 09:53:29;;;;;;;1.97;0.73;;;10.50;99.90;;;;;;20906547;28;20056;-76
2021/05/17 10:03:36;;;;;;;5.43;1.52;;;10.70;99.90;;;;;;20884549;22;20049;-78
2021/05/17 10:13:38;;;;;;;3.20;1.20;;;11.20;99.90;;;;;;20853950;28;20411;-77
2021/05/17 10:23:41;;;;;;;;;;;10.80;99.90;;;;;;20801289;28;20048;-78
2021/05/17 10:33:43;;;;;;;3.25;0.90;;;11.00;99.90;;;;;;20828493;28;19909;-80
2021/05/17 10:54:29;;;;;;;1.77;0.40;;;11.50;99.90;;;;;;20875931;28;20065;-80
2021/05/17 11:04:33;;;;;;;4.40;0.93;;;11.70;99.90;;;;;;20860117;28;20025;-78
2021/05/17 11:14:36;;;;;;;12.63;4.93;;;11.70;99.90;;;;;;20843471;28;20033;-80
2021/05/17 11:24:37;;;;;;;5.25;1.27;;;11.70;99.90;;;;;;20843509;28;20419;-78
2021/05/17 11:35:02;;;;;;;2.35;0.55;;;11.40;99.90;;;;;;20793460;28;20041;-78
2021/05/17 11:45:12;;;;;;;7.30;1.02;;;11.90;99.90;;;;;;20809479;28;20026;-78
2021/05/17 11:55:13;;;;;;;2.20;0.50;;;12.60;99.90;;;;;;20803009;28;20033;-80
2021/05/17 12:05:16;;;;;;;2.47;0.50;;;12.20;99.90;;;;;;20849291;28;20033;-80
2021/05/17 12:15:19;;;;;;;6.80;0.68;;;12.30;99.90;;;;;;20845443;28;20574;-81
2021/05/17 12:25:22;;;;;;;3.83;0.90;;;13.80;99.90;;;;;;20845191;28;20033;-80
2021/05/17 12:35:27;;;;;;;3.10;0.70;;;14.00;99.90;;;;;;20854732;28;20036;-80
2021/05/17 12:45:29;;;;;;;2.63;0.52;;;13.90;99.90;;;;;;20827930;28;20035;-80
2021/05/17 12:55:43;;;;;;;3.95;0.63;;;13.30;99.90;;;;;;20852130;28;20033;-80
2021/05/17 13:06:10;;;;;;;3.53;0.50;;;13.50;99.90;;;;;;20857685;28;20369;-79
2021/05/17 13:16:29;;;;;;;1.35;0.40;;;12.50;99.90;;;;;;20812043;28;20071;-79
2021/05/17 13:36:50;;;;;;;1.17;0.28;;;12.60;99.90;;;;;;20808222;28;20029;-79
2021/05/17 13:46:53;;;;;;;2.10;0.30;;;13.10;99.90;;;;;;20822121;28;20083;-78
2021/05/17 13:56:54;;;;;;;4.05;0.80;;;13.60;99.90;;;;;;20828388;28;20037;-77
2021/05/17 14:06:54;;;;;;;3.53;0.70;;;13.80;99.90;;;;;;20836889;28;20403;-79
2021/05/17 14:16:56;;;;;;;1.67;0.80;;;13.10;99.90;;;;;;20840003;28;20040;-80
2021/05/17 14:26:57;;;;;;;1.17;0.68;;;12.80;99.90;;;;;;20862814;28;20091;-80
2021/05/17 14:36:58;;;;;;;1.83;0.50;;;12.40;99.90;;;;;;20844850;28;20037;-79
2021/05/17 14:46:59;;;;;;;2.07;0.50;;;11.00;99.90;;;;;;20818697;28;20119;-78
2021/05/17 14:57:00;;;;;;;3.70;0.50;;;10.50;99.90;;;;;;20797058;28;20037;-78
2021/05/17 15:07:01;;;;;;;1.63;0.70;;;12.30;99.90;;;;;;20794818;28;20038;-79
2021/05/17 15:17:02;;;;;;;2.07;0.50;;;12.60;99.90;;;;;;20803074;28;20132;-79
2021/05/17 15:27:03;;;;;;;2.20;0.80;;;12.10;99.90;;;;;;20753565;28;20373;-79
2021/05/17 15:37:04;;;;;;;9.67;3.10;;;12.50;99.90;;;;;;20755231;28;20065;-79
2021/05/17 15:47:04;;;;;;;8.07;1.20;;;12.80;99.90;;;;;;20740442;28;20068;-81
2021/05/17 15:57:05;;;;;;;13.90;2.87;;;12.80;99.90;;;;;;20773563;28;20042;-80
2021/05/17 16:07:07;;;;;;;3.53;0.70;;;12.40;99.90;;;;;;20883963;22;20057;-78
2021/05/17 16:27:22;;;;;;;2.17;0.45;;;12.30;99.90;;;;;;20909199;28;20048;-78
2021/05/17 16:37:23;;;;;;;3.42;0.50;;;11.50;99.90;;;;;;20894528;28;20058;-79
2021/05/17 16:47:24;;;;;;;2.42;0.50;;;12.00;99.90;;;;;;20890095;28;20487;-78
2021/05/17 16:57:25;;;;;;;10.93;3.90;;;12.50;99.90;;;;;;20892442;28;20087;-79
2021/05/17 17:07:27;;;;;;;8.55;3.53;;;12.40;99.90;;;;;;20876467;28;20060;-79
2021/05/17 17:17:28;;;;;;;46.57;11.93;;;12.30;99.90;;;;;;20895358;28;20064;-78
2021/05/17 17:27:29;;;;;;;2.87;1.90;;;12.30;99.90;;;;;;20896305;28;20029;-78
2021/05/17 17:37:30;;;;;;;2.13;0.57;;;12.10;99.90;;;;;;20885039;28;20840;-79
2021/05/17 17:47:31;;;;;;;2.60;0.40;;;11.80;99.90;;;;;;20906973;28;20021;-79
2021/05/17 17:57:31;;;;;;;0.80;0.50;;;11.70;99.90;;;;;;20906397;28;20033;-79
2021/05/17 18:07:32;;;;;;;0.97;0.50;;;11.40;99.90;;;;;;20894602;28;20037;-78
2021/05/17 18:17:33;;;;;;;0.70;0.50;;;11.30;99.90;;;;;;20912016;28;20025;-78
2021/05/17 18:27:34;;;;;;;2.60;0.70;;;11.30;99.90;;;;;;20921191;28;20136;-80
2021/05/17 18:37:35;;;;;;;2.17;0.50;;;11.10;99.90;;;;;;20933905;28;20094;-79
2021/05/17 18:47:37;;;;;;;3.40;0.90;;;10.90;99.90;;;;;;20921374;28;20090;-80
2021/05/17 18:57:40;;;;;;;1.90;1.00;;;10.60;99.90;;;;;;20905664;28;20112;-79
2021/05/17 19:07:41;;;;;;;2.33;1.05;;;10.60;99.90;;;;;;20916370;28;20045;-78
2021/05/17 19:17:42;;;;;;;5.37;0.90;;;10.30;99.90;;;;;;20910015;28;20082;-79
2021/05/17 19:27:45;;;;;;;2.83;0.87;;;10.10;99.90;;;;;;20901484;28;20036;-78
2021/05/17 19:37:46;;;;;;;3.17;0.90;;;10.20;99.90;;;;;;20896495;28;20029;-77
2021/05/17 19:47:47;;;;;;;11.20;1.90;;;10.40;99.90;;;;;;20896291;28;20079;-78
2021/05/17 19:57:48;;;;;;;3.40;0.53;;;10.60;99.90;;;;;;20894083;28;20041;-77
2021/05/17 20:07:49;;;;;;;0.50;0.33;;;10.00;99.90;;;;;;20894519;28;20037;-78
2021/05/17 20:17:51;;;;;;;8.07;3.07;;;9.60;99.90;;;;;;20893345;28;20437;-78
2021/05/17 20:27:52;;;;;;;4.40;1.98;;;9.30;99.90;;;;;;20897483;28;20028;-78
2021/05/17 20:37:54;;;;;;;2.00;1.20;;;9.10;99.90;;;;;;20905775;28;20032;-78
2021/05/17 20:47:55;;;;;;;4.18;0.68;;;9.10;99.90;;;;;;20907197;28;20048;-78
2021/05/17 20:57:56;;;;;;;4.33;2.37;;;9.00;99.90;;;;;;20921725;28;20025;-79
2021/05/17 21:07:57;;;;;;;3.43;1.30;;;9.00;99.90;;;;;;20915058;28;20488;-77
2021/05/17 21:17:58;;;;;;;1.43;1.10;;;9.00;99.90;;;;;;20910825;28;20025;-79
2021/05/17 21:27:59;;;;;;;5.37;0.63;;;9.00;99.90;;;;;;20908962;28;20025;-78
2021/05/17 21:38:00;;;;;;;3.97;0.63;;;8.80;99.90;;;;;;20915916;28;20021;-80
2021/05/17 21:48:01;;;;;;;0.53;0.47;;;9.00;99.90;;;;;;20919491;28;20025;-80
2021/05/17 21:58:02;;;;;;;1.60;0.50;;;9.00;99.90;;;;;;20917353;28;20033;-80
2021/05/17 22:18:26;;;;;;;1.98;0.73;;;9.10;99.90;;;;;;20840260;28;20095;-75
2021/05/17 22:28:31;;;;;;;0.65;0.60;;;9.20;99.90;;;;;;20835356;28;20111;-75
2021/05/17 22:38:32;;;;;;;0.93;0.70;;;9.10;99.90;;;;;;20819197;28;20036;-75
2021/05/17 22:48:33;;;;;;;0.80;0.60;;;9.10;99.90;;;;;;20815662;28;20622;-75
2021/05/17 22:58:34;;;;;;;1.10;0.80;;;9.10;99.90;;;;;;20835006;28;20033;-75
2021/05/17 23:08:35;;;;;;;1.13;0.60;;;8.90;99.90;;;;;;20834735;28;20474;-75
2021/05/17 23:18:36;;;;;;;0.87;0.30;;;9.00;99.90;;;;;;20834555;28;20037;-75
2021/05/17 23:28:37;;;;;;;2.20;0.50;;;9.00;99.90;;;;;;20834096;28;20553;-76
2021/05/17 23:38:39;;;;;;;0.90;0.60;;;8.90;99.90;;;;;;20833463;28;20033;-75
2021/05/17 23:48:40;;;;;;;4.55;1.10;;;8.80;99.90;;;;;;20831204;28;20029;-75
2021/05/17 23:58:40;;;;;;;2.17;0.93;;;8.70;99.90;;;;;;20831891;28;20518;-75
